Aérodrome :
LOGIN :

S'inscrire | Disclaimer

   EN    FR    IT 

 










Légende :    VFR   VFR Marginal   IFR   IFR Intensif   IFR Très Intensif
Visi : 
Plafond : 
>= 8 km
>= 3000ft
5 à 8 km
1000 à 3000 ft
1500m à 5 km
500 à 1000 ft
800 à 1500m
200 à 500 ft
< 800m
< 200 ft
Symboles :   Orages  Brouillard  Fortes neiges  Fortes précipitations  Vent > 20 kt
SIGMETs :   Divers  Orages  Givrage  Turbulence  Onde Orograph.  Cendres Volcan.






- Altitude de l'aérodrome : 465 ft
- Code IATA : LEJ


EDDP - Leipzig Halle

DERNIER METAR :
  • 291820Z AUTO 22013KT 9999 OVC024 OVC036 00/M03 Q1022 NOSIG

METARs EXPIRÉS :
  • 291750Z AUTO 23011KT 9999 OVC024 00/M03 Q1022 NOSIG
  • 291720Z AUTO 24014KT 9999 OVC025 00/M03 Q1023 NOSIG
  • 291650Z AUTO 23011KT 9999 OVC025 00/M03 Q1023 NOSIG
  • 291620Z AUTO 22011KT 9999 OVC024 00/M03 Q1023 NOSIG
  • 291550Z AUTO 23012KT 9999 OVC027 00/M03 Q1023 NOSIG

TAF TAF EDDP
Valide du 29 à 18h jusqu'au 30 à 18h UTC


291700Z 2918/3018 23014KT 9999 SCT020 BKN030
BECMG 2922/2924 23020KT
BECMG 3002/3004 25020G35KT
PROB30
TEMPO 3006/3014 4500 -RASN BKN014
TEMPO 3013/3015 27025G40KT BKN020CB



MET'MAP, la Météo Aéronautique d'un coup d'oeil ! - Copyright ORBIFLY Décembre 2007 - Disclaimer

ORBIFLY MET'MAP TEAM :

Programmation & Développement : Alexandra Zaïnal
Sur une idée originale de : Baudouin d'Aumeries
Soutien technique & logistique : Manuel Goepfert
Assistance : Marc-Olivier Méhu




SOURCES & CREDITS :

   NOAA